sensor_id;sensor_type;location;lat;lon;timestamp;P1;durP1;ratioP1;P2;durP2;ratioP2
23444;SDS011;11895;48.738;9.320;2023-06-10T00:01:58;8.40;;;5.80;;
23444;SDS011;11895;48.738;9.320;2023-06-10T00:04:26;8.25;;;6.10;;
23444;SDS011;11895;48.738;9.320;2023-06-10T00:06:54;9.00;;;5.63;;
23444;SDS011;11895;48.738;9.320;2023-06-10T00:09:26;7.65;;;5.70;;
23444;SDS011;11895;48.738;9.320;2023-06-10T00:11:55;8.75;;;5.53;;
23444;SDS011;11895;48.738;9.320;2023-06-10T00:14:26;7.63;;;5.90;;
23444;SDS011;11895;48.738;9.320;2023-06-10T00:16:54;10.15;;;6.55;;
23444;SDS011;11895;48.738;9.320;2023-06-10T00:19:21;8.32;;;5.95;;
23444;SDS011;11895;48.738;9.320;2023-06-10T00:21:58;10.02;;;5.95;;
23444;SDS011;11895;48.738;9.320;2023-06-10T00:24:25;10.25;;;6.32;;
23444;SDS011;11895;48.738;9.320;2023-06-10T00:27:17;10.48;;;7.05;;
23444;SDS011;11895;48.738;9.320;2023-06-10T00:30:49;8.30;;;6.03;;
23444;SDS011;11895;48.738;9.320;2023-06-10T00:33:21;14.38;;;6.30;;
23444;SDS011;11895;48.738;9.320;2023-06-10T00:36:23;9.30;;;5.45;;
23444;SDS011;11895;48.738;9.320;2023-06-10T00:39:53;12.70;;;5.55;;
23444;SDS011;11895;48.738;9.320;2023-06-10T00:42:20;7.82;;;5.85;;
23444;SDS011;11895;48.738;9.320;2023-06-10T00:44:56;8.73;;;5.22;;
23444;SDS011;11895;48.738;9.320;2023-06-10T00:47:23;7.72;;;5.20;;
23444;SDS011;11895;48.738;9.320;2023-06-10T00:49:52;8.80;;;5.63;;
23444;SDS011;11895;48.738;9.320;2023-06-10T00:52:43;6.85;;;5.38;;
23444;SDS011;11895;48.738;9.320;2023-06-10T00:56:14;7.25;;;5.22;;
23444;SDS011;11895;48.738;9.320;2023-06-10T00:59:35;8.80;;;6.10;;
23444;SDS011;11895;48.738;9.320;2023-06-10T01:02:05;6.82;;;5.63;;
23444;SDS011;11895;48.738;9.320;2023-06-10T01:04:36;10.20;;;5.70;;
23444;SDS011;11895;48.738;9.320;2023-06-10T01:13:05;6.93;;;5.38;;
23444;SDS011;11895;48.738;9.320;2023-06-10T01:15:38;12.18;;;5.97;;
23444;SDS011;11895;48.738;9.320;2023-06-10T01:18:09;7.70;;;5.50;;
23444;SDS011;11895;48.738;9.320;2023-06-10T01:20:43;9.70;;;5.70;;
23444;SDS011;11895;48.738;9.320;2023-06-10T01:23:48;8.55;;;4.97;;
23444;SDS011;11895;48.738;9.320;2023-06-10T01:26:22;7.38;;;5.28;;
23444;SDS011;11895;48.738;9.320;2023-06-10T01:29:03;8.43;;;5.00;;
23444;SDS011;11895;48.738;9.320;2023-06-10T01:31:56;8.10;;;5.38;;
23444;SDS011;11895;48.738;9.320;2023-06-10T01:34:41;6.43;;;5.10;;
23444;SDS011;11895;48.738;9.320;2023-06-10T01:37:16;9.90;;;4.97;;
23444;SDS011;11895;48.738;9.320;2023-06-10T01:40:00;6.40;;;5.38;;
23444;SDS011;11895;48.738;9.320;2023-06-10T01:42:34;11.88;;;5.70;;
23444;SDS011;11895;48.738;9.320;2023-06-10T01:45:02;8.68;;;5.68;;
23444;SDS011;11895;48.738;9.320;2023-06-10T01:47:33;8.75;;;5.85;;
23444;SDS011;11895;48.738;9.320;2023-06-10T01:50:01;7.65;;;5.10;;
23444;SDS011;11895;48.738;9.320;2023-06-10T01:52:29;12.45;;;6.53;;
23444;SDS011;11895;48.738;9.320;2023-06-10T01:55:01;7.03;;;5.72;;
23444;SDS011;11895;48.738;9.320;2023-06-10T01:57:29;9.82;;;5.53;;
23444;SDS011;11895;48.738;9.320;2023-06-10T01:59:59;9.95;;;5.50;;
23444;SDS011;11895;48.738;9.320;2023-06-10T02:02:27;6.63;;;5.53;;
23444;SDS011;11895;48.738;9.320;2023-06-10T02:04:55;7.18;;;5.50;;
23444;SDS011;11895;48.738;9.320;2023-06-10T02:07:23;6.47;;;5.05;;
23444;SDS011;11895;48.738;9.320;2023-06-10T02:09:51;8.85;;;5.25;;
23444;SDS011;11895;48.738;9.320;2023-06-10T02:12:20;7.90;;;5.20;;
23444;SDS011;11895;48.738;9.320;2023-06-10T02:14:48;8.95;;;5.30;;
23444;SDS011;11895;48.738;9.320;2023-06-10T02:17:24;7.53;;;5.47;;
23444;SDS011;11895;48.738;9.320;2023-06-10T02:19:54;6.90;;;5.60;;
23444;SDS011;11895;48.738;9.320;2023-06-10T02:22:23;9.23;;;5.97;;
23444;SDS011;11895;48.738;9.320;2023-06-10T02:24:58;7.55;;;5.28;;
23444;SDS011;11895;48.738;9.320;2023-06-10T02:27:25;8.10;;;5.55;;
23444;SDS011;11895;48.738;9.320;2023-06-10T02:29:54;10.13;;;5.53;;
23444;SDS011;11895;48.738;9.320;2023-06-10T02:32:24;8.02;;;5.43;;
23444;SDS011;11895;48.738;9.320;2023-06-10T02:34:57;12.73;;;5.97;;
23444;SDS011;11895;48.738;9.320;2023-06-10T02:38:09;7.28;;;5.80;;
23444;SDS011;11895;48.738;9.320;2023-06-10T02:41:27;6.85;;;5.40;;
23444;SDS011;11895;48.738;9.320;2023-06-10T02:44:41;13.55;;;5.32;;
23444;SDS011;11895;48.738;9.320;2023-06-10T02:47:16;12.00;;;5.70;;
23444;SDS011;11895;48.738;9.320;2023-06-10T02:49:45;7.05;;;5.38;;
23444;SDS011;11895;48.738;9.320;2023-06-10T02:52:16;9.82;;;5.90;;
23444;SDS011;11895;48.738;9.320;2023-06-10T02:54:45;7.45;;;5.60;;
23444;SDS011;11895;48.738;9.320;2023-06-10T02:57:13;8.35;;;6.03;;
23444;SDS011;11895;48.738;9.320;2023-06-10T02:59:43;7.30;;;5.55;;
23444;SDS011;11895;48.738;9.320;2023-06-10T03:02:12;9.07;;;5.15;;
23444;SDS011;11895;48.738;9.320;2023-06-10T03:04:48;7.63;;;5.90;;
23444;SDS011;11895;48.738;9.320;2023-06-10T03:07:18;8.43;;;6.60;;
23444;SDS011;11895;48.738;9.320;2023-06-10T03:09:49;7.68;;;6.07;;
23444;SDS011;11895;48.738;9.320;2023-06-10T03:12:19;9.35;;;5.90;;
23444;SDS011;11895;48.738;9.320;2023-06-10T03:14:47;7.40;;;6.28;;
23444;SDS011;11895;48.738;9.320;2023-06-10T03:17:16;7.13;;;6.05;;
23444;SDS011;11895;48.738;9.320;2023-06-10T03:19:46;9.05;;;5.53;;
23444;SDS011;11895;48.738;9.320;2023-06-10T03:22:21;8.70;;;6.03;;
23444;SDS011;11895;48.738;9.320;2023-06-10T03:25:50;10.50;;;6.00;;
23444;SDS011;11895;48.738;9.320;2023-06-10T03:28:52;7.05;;;5.45;;
23444;SDS011;11895;48.738;9.320;2023-06-10T03:31:22;10.65;;;6.18;;
23444;SDS011;11895;48.738;9.320;2023-06-10T03:33:52;7.95;;;6.72;;
23444;SDS011;11895;48.738;9.320;2023-06-10T03:36:21;8.27;;;6.10;;
23444;SDS011;11895;48.738;9.320;2023-06-10T03:38:48;6.68;;;5.43;;
23444;SDS011;11895;48.738;9.320;2023-06-10T03:41:19;8.07;;;5.95;;
23444;SDS011;11895;48.738;9.320;2023-06-10T03:43:49;8.98;;;5.70;;
23444;SDS011;11895;48.738;9.320;2023-06-10T03:46:17;9.02;;;5.43;;
23444;SDS011;11895;48.738;9.320;2023-06-10T03:48:46;8.83;;;5.40;;
23444;SDS011;11895;48.738;9.320;2023-06-10T03:51:17;6.97;;;5.22;;
23444;SDS011;11895;48.738;9.320;2023-06-10T03:57:42;6.40;;;5.18;;
23444;SDS011;11895;48.738;9.320;2023-06-10T04:00:53;5.75;;;4.97;;
23444;SDS011;11895;48.738;9.320;2023-06-10T04:06:54;5.20;;;4.30;;
23444;SDS011;11895;48.738;9.320;2023-06-10T04:10:19;8.82;;;6.40;;
23444;SDS011;11895;48.738;9.320;2023-06-10T04:13:43;8.55;;;5.68;;
23444;SDS011;11895;48.738;9.320;2023-06-10T04:16:12;8.07;;;5.28;;
23444;SDS011;11895;48.738;9.320;2023-06-10T04:18:42;11.10;;;5.70;;
23444;SDS011;11895;48.738;9.320;2023-06-10T04:21:15;7.57;;;5.32;;
23444;SDS011;11895;48.738;9.320;2023-06-10T04:24:21;6.63;;;5.18;;
23444;SDS011;11895;48.738;9.320;2023-06-10T04:27:01;8.32;;;5.97;;
23444;SDS011;11895;48.738;9.320;2023-06-10T04:29:30;10.05;;;6.43;;
23444;SDS011;11895;48.738;9.320;2023-06-10T04:31:57;7.80;;;5.95;;
23444;SDS011;11895;48.738;9.320;2023-06-10T04:34:26;8.13;;;6.13;;
23444;SDS011;11895;48.738;9.320;2023-06-10T04:36:57;12.30;;;6.13;;
23444;SDS011;11895;48.738;9.320;2023-06-10T04:39:25;7.65;;;5.82;;
23444;SDS011;11895;48.738;9.320;2023-06-10T04:41:55;10.40;;;7.45;;
23444;SDS011;11895;48.738;9.320;2023-06-10T04:44:24;7.47;;;6.28;;
23444;SDS011;11895;48.738;9.320;2023-06-10T04:46:54;11.35;;;7.63;;
23444;SDS011;11895;48.738;9.320;2023-06-10T04:49:23;6.63;;;5.05;;
23444;SDS011;11895;48.738;9.320;2023-06-10T04:51:51;11.15;;;6.00;;
23444;SDS011;11895;48.738;9.320;2023-06-10T04:54:20;8.85;;;7.00;;
23444;SDS011;11895;48.738;9.320;2023-06-10T04:57:02;9.73;;;6.55;;
23444;SDS011;11895;48.738;9.320;2023-06-10T05:00:09;8.88;;;7.15;;
23444;SDS011;11895;48.738;9.320;2023-06-10T05:03:53;10.90;;;7.25;;
23444;SDS011;11895;48.738;9.320;2023-06-10T05:10:35;8.77;;;5.85;;
23444;SDS011;11895;48.738;9.320;2023-06-10T05:13:03;7.50;;;5.72;;
23444;SDS011;11895;48.738;9.320;2023-06-10T05:15:30;8.32;;;6.57;;
23444;SDS011;11895;48.738;9.320;2023-06-10T05:17:57;12.40;;;7.55;;
23444;SDS011;11895;48.738;9.320;2023-06-10T05:20:25;11.40;;;6.82;;
23444;SDS011;11895;48.738;9.320;2023-06-10T05:25:22;8.77;;;5.77;;
23444;SDS011;11895;48.738;9.320;2023-06-10T05:27:51;11.43;;;5.72;;
23444;SDS011;11895;48.738;9.320;2023-06-10T05:30:19;8.70;;;6.30;;
23444;SDS011;11895;48.738;9.320;2023-06-10T05:32:51;12.27;;;6.75;;
23444;SDS011;11895;48.738;9.320;2023-06-10T05:35:23;9.57;;;6.20;;
23444;SDS011;11895;48.738;9.320;2023-06-10T05:37:51;10.23;;;6.88;;
23444;SDS011;11895;48.738;9.320;2023-06-10T05:40:21;10.70;;;6.85;;
23444;SDS011;11895;48.738;9.320;2023-06-10T05:42:49;8.63;;;6.70;;
23444;SDS011;11895;48.738;9.320;2023-06-10T05:45:23;9.10;;;7.25;;
23444;SDS011;11895;48.738;9.320;2023-06-10T05:47:59;9.73;;;7.60;;
23444;SDS011;11895;48.738;9.320;2023-06-10T05:51:20;9.88;;;6.32;;
23444;SDS011;11895;48.738;9.320;2023-06-10T05:54:55;10.45;;;6.68;;
23444;SDS011;11895;48.738;9.320;2023-06-10T05:57:22;9.30;;;5.18;;
23444;SDS011;11895;48.738;9.320;2023-06-10T05:59:52;9.70;;;6.20;;
23444;SDS011;11895;48.738;9.320;2023-06-10T06:02:20;9.90;;;6.30;;
23444;SDS011;11895;48.738;9.320;2023-06-10T06:04:48;7.95;;;5.40;;
23444;SDS011;11895;48.738;9.320;2023-06-10T06:07:16;9.27;;;5.82;;
23444;SDS011;11895;48.738;9.320;2023-06-10T06:09:47;9.27;;;6.43;;
23444;SDS011;11895;48.738;9.320;2023-06-10T06:12:16;9.10;;;6.65;;
23444;SDS011;11895;48.738;9.320;2023-06-10T06:14:44;7.85;;;5.35;;
23444;SDS011;11895;48.738;9.320;2023-06-10T06:17:12;8.40;;;5.40;;
23444;SDS011;11895;48.738;9.320;2023-06-10T06:19:44;8.07;;;5.05;;
23444;SDS011;11895;48.738;9.320;2023-06-10T06:22:14;10.18;;;5.25;;
23444;SDS011;11895;48.738;9.320;2023-06-10T06:24:54;6.90;;;5.00;;
23444;SDS011;11895;48.738;9.320;2023-06-10T06:27:22;5.93;;;4.40;;
23444;SDS011;11895;48.738;9.320;2023-06-10T06:29:52;6.43;;;5.00;;
23444;SDS011;11895;48.738;9.320;2023-06-10T06:32:23;8.23;;;5.70;;
23444;SDS011;11895;48.738;9.320;2023-06-10T06:34:54;9.25;;;4.75;;
23444;SDS011;11895;48.738;9.320;2023-06-10T06:37:21;9.25;;;5.57;;
23444;SDS011;11895;48.738;9.320;2023-06-10T06:40:03;9.43;;;5.60;;
23444;SDS011;11895;48.738;9.320;2023-06-10T06:42:35;5.97;;;4.90;;
23444;SDS011;11895;48.738;9.320;2023-06-10T06:45:13;6.63;;;4.03;;
23444;SDS011;11895;48.738;9.320;2023-06-10T06:47:46;9.45;;;5.20;;
23444;SDS011;11895;48.738;9.320;2023-06-10T06:50:13;7.25;;;4.72;;
23444;SDS011;11895;48.738;9.320;2023-06-10T06:52:44;6.88;;;4.97;;
23444;SDS011;11895;48.738;9.320;2023-06-10T06:55:11;6.07;;;4.65;;
23444;SDS011;11895;48.738;9.320;2023-06-10T06:57:56;5.72;;;4.63;;
23444;SDS011;11895;48.738;9.320;2023-06-10T07:02:28;4.93;;;4.25;;
23444;SDS011;11895;48.738;9.320;2023-06-10T07:05:43;6.38;;;4.63;;
23444;SDS011;11895;48.738;9.320;2023-06-10T07:09:12;6.70;;;4.90;;
23444;SDS011;11895;48.738;9.320;2023-06-10T07:12:35;6.85;;;5.32;;
23444;SDS011;11895;48.738;9.320;2023-06-10T07:15:09;5.72;;;5.07;;
23444;SDS011;11895;48.738;9.320;2023-06-10T07:17:37;10.50;;;5.10;;
23444;SDS011;11895;48.738;9.320;2023-06-10T07:20:09;6.18;;;4.53;;
23444;SDS011;11895;48.738;9.320;2023-06-10T07:22:39;5.10;;;4.60;;
23444;SDS011;11895;48.738;9.320;2023-06-10T07:27:36;6.55;;;4.90;;
23444;SDS011;11895;48.738;9.320;2023-06-10T07:30:09;7.60;;;5.00;;
23444;SDS011;11895;48.738;9.320;2023-06-10T07:32:38;6.30;;;4.95;;
23444;SDS011;11895;48.738;9.320;2023-06-10T07:35:10;6.00;;;4.47;;
23444;SDS011;11895;48.738;9.320;2023-06-10T07:37:39;7.55;;;5.18;;
23444;SDS011;11895;48.738;9.320;2023-06-10T07:40:06;6.63;;;4.20;;
23444;SDS011;11895;48.738;9.320;2023-06-10T07:42:36;6.32;;;4.40;;
23444;SDS011;11895;48.738;9.320;2023-06-10T07:45:04;9.55;;;5.20;;
23444;SDS011;11895;48.738;9.320;2023-06-10T07:50:01;6.63;;;4.70;;
23444;SDS011;11895;48.738;9.320;2023-06-10T07:52:31;5.25;;;4.30;;
23444;SDS011;11895;48.738;9.320;2023-06-10T07:55:58;9.95;;;5.75;;
23444;SDS011;11895;48.738;9.320;2023-06-10T07:59:48;8.48;;;5.50;;
23444;SDS011;11895;48.738;9.320;2023-06-10T08:03:47;6.07;;;5.07;;
23444;SDS011;11895;48.738;9.320;2023-06-10T08:12:27;5.70;;;3.80;;
23444;SDS011;11895;48.738;9.320;2023-06-10T08:20:46;4.85;;;3.97;;
23444;SDS011;11895;48.738;9.320;2023-06-10T08:24:45;4.43;;;4.03;;
23444;SDS011;11895;48.738;9.320;2023-06-10T08:28:45;7.35;;;4.45;;
23444;SDS011;11895;48.738;9.320;2023-06-10T08:36:38;6.00;;;4.30;;
23444;SDS011;11895;48.738;9.320;2023-06-10T08:40:14;6.32;;;4.28;;
23444;SDS011;11895;48.738;9.320;2023-06-10T08:45:08;4.18;;;3.78;;
23444;SDS011;11895;48.738;9.320;2023-06-10T08:49:10;5.25;;;4.35;;
23444;SDS011;11895;48.738;9.320;2023-06-10T09:01:42;5.47;;;4.20;;
23444;SDS011;11895;48.738;9.320;2023-06-10T09:05:46;5.30;;;3.90;;
23444;SDS011;11895;48.738;9.320;2023-06-10T09:09:03;4.10;;;3.50;;
23444;SDS011;11895;48.738;9.320;2023-06-10T09:11:33;7.00;;;3.40;;
23444;SDS011;11895;48.738;9.320;2023-06-10T09:14:01;5.45;;;3.40;;
23444;SDS011;11895;48.738;9.320;2023-06-10T09:16:28;3.78;;;3.35;;
23444;SDS011;11895;48.738;9.320;2023-06-10T09:18:56;6.07;;;3.40;;
23444;SDS011;11895;48.738;9.320;2023-06-10T09:21:24;4.22;;;3.08;;
23444;SDS011;11895;48.738;9.320;2023-06-10T09:23:52;4.57;;;3.58;;
23444;SDS011;11895;48.738;9.320;2023-06-10T09:26:29;13.93;;;4.65;;
23444;SDS011;11895;48.738;9.320;2023-06-10T09:29:05;5.32;;;3.30;;
23444;SDS011;11895;48.738;9.320;2023-06-10T09:31:47;16.23;;;5.60;;
23444;SDS011;11895;48.738;9.320;2023-06-10T09:34:15;7.72;;;4.07;;
23444;SDS011;11895;48.738;9.320;2023-06-10T09:36:49;3.40;;;2.92;;
23444;SDS011;11895;48.738;9.320;2023-06-10T09:39:34;12.45;;;4.18;;
23444;SDS011;11895;48.738;9.320;2023-06-10T09:42:23;8.98;;;3.35;;
23444;SDS011;11895;48.738;9.320;2023-06-10T09:49:49;5.63;;;2.95;;
23444;SDS011;11895;48.738;9.320;2023-06-10T09:52:23;4.95;;;2.97;;
23444;SDS011;11895;48.738;9.320;2023-06-10T09:54:58;5.38;;;2.83;;
23444;SDS011;11895;48.738;9.320;2023-06-10T09:57:34;4.72;;;2.90;;
23444;SDS011;11895;48.738;9.320;2023-06-10T10:00:06;4.35;;;3.22;;
23444;SDS011;11895;48.738;9.320;2023-06-10T10:07:48;6.53;;;3.10;;
23444;SDS011;11895;48.738;9.320;2023-06-10T10:10:17;3.70;;;2.90;;
23444;SDS011;11895;48.738;9.320;2023-06-10T10:12:47;2.97;;;2.53;;
23444;SDS011;11895;48.738;9.320;2023-06-10T10:15:24;3.17;;;2.88;;
23444;SDS011;11895;48.738;9.320;2023-06-10T10:18:06;5.85;;;3.10;;
23444;SDS011;11895;48.738;9.320;2023-06-10T10:20:41;4.50;;;3.30;;
23444;SDS011;11895;48.738;9.320;2023-06-10T10:23:18;5.72;;;2.72;;
23444;SDS011;11895;48.738;9.320;2023-06-10T10:25:56;4.78;;;3.05;;
23444;SDS011;11895;48.738;9.320;2023-06-10T10:28:41;5.05;;;3.10;;
23444;SDS011;11895;48.738;9.320;2023-06-10T10:31:20;5.93;;;2.70;;
23444;SDS011;11895;48.738;9.320;2023-06-10T10:33:52;3.28;;;2.80;;
23444;SDS011;11895;48.738;9.320;2023-06-10T10:36:27;5.20;;;2.53;;
23444;SDS011;11895;48.738;9.320;2023-06-10T10:38:54;3.78;;;3.00;;
23444;SDS011;11895;48.738;9.320;2023-06-10T10:41:23;6.82;;;2.95;;
23444;SDS011;11895;48.738;9.320;2023-06-10T10:43:52;3.10;;;2.55;;
23444;SDS011;11895;48.738;9.320;2023-06-10T10:46:20;2.77;;;2.50;;
23444;SDS011;11895;48.738;9.320;2023-06-10T10:48:52;3.50;;;2.60;;
23444;SDS011;11895;48.738;9.320;2023-06-10T10:51:22;3.65;;;2.42;;
23444;SDS011;11895;48.738;9.320;2023-06-10T10:54:10;5.82;;;2.47;;
23444;SDS011;11895;48.738;9.320;2023-06-10T11:02:19;4.75;;;2.42;;
23444;SDS011;11895;48.738;9.320;2023-06-10T11:05:10;4.20;;;2.30;;
23444;SDS011;11895;48.738;9.320;2023-06-10T11:07:51;3.40;;;2.50;;
23444;SDS011;11895;48.738;9.320;2023-06-10T11:13:07;3.08;;;2.55;;
23444;SDS011;11895;48.738;9.320;2023-06-10T11:15:45;5.90;;;2.50;;
23444;SDS011;11895;48.738;9.320;2023-06-10T11:21:02;4.82;;;2.60;;
23444;SDS011;11895;48.738;9.320;2023-06-10T11:23:32;3.33;;;2.47;;
23444;SDS011;11895;48.738;9.320;2023-06-10T11:26:11;4.30;;;2.65;;
23444;SDS011;11895;48.738;9.320;2023-06-10T11:31:23;2.95;;;2.30;;
23444;SDS011;11895;48.738;9.320;2023-06-10T11:34:21;6.45;;;2.20;;
23444;SDS011;11895;48.738;9.320;2023-06-10T11:36:51;3.58;;;2.17;;
23444;SDS011;11895;48.738;9.320;2023-06-10T11:41:49;3.30;;;3.00;;
23444;SDS011;11895;48.738;9.320;2023-06-10T11:44:18;3.70;;;2.47;;
23444;SDS011;11895;48.738;9.320;2023-06-10T11:46:47;3.95;;;2.63;;
23444;SDS011;11895;48.738;9.320;2023-06-10T11:49:16;4.00;;;2.30;;
23444;SDS011;11895;48.738;9.320;2023-06-10T11:51:43;4.03;;;2.63;;
23444;SDS011;11895;48.738;9.320;2023-06-10T11:54:16;3.30;;;2.80;;
23444;SDS011;11895;48.738;9.320;2023-06-10T11:56:45;3.67;;;2.20;;
23444;SDS011;11895;48.738;9.320;2023-06-10T11:59:13;9.80;;;2.45;;
23444;SDS011;11895;48.738;9.320;2023-06-10T12:01:42;7.70;;;2.67;;
23444;SDS011;11895;48.738;9.320;2023-06-10T12:04:12;3.60;;;2.67;;
23444;SDS011;11895;48.738;9.320;2023-06-10T12:06:44;3.15;;;2.40;;
23444;SDS011;11895;48.738;9.320;2023-06-10T12:09:20;2.97;;;2.47;;
23444;SDS011;11895;48.738;9.320;2023-06-10T12:14:54;3.83;;;2.17;;
23444;SDS011;11895;48.738;9.320;2023-06-10T12:20:02;4.93;;;2.88;;
23444;SDS011;11895;48.738;9.320;2023-06-10T12:22:38;4.93;;;2.50;;
23444;SDS011;11895;48.738;9.320;2023-06-10T12:25:09;4.00;;;2.70;;
23444;SDS011;11895;48.738;9.320;2023-06-10T12:27:40;6.00;;;2.45;;
23444;SDS011;11895;48.738;9.320;2023-06-10T12:30:19;4.07;;;2.50;;
23444;SDS011;11895;48.738;9.320;2023-06-10T12:32:53;6.07;;;2.30;;
23444;SDS011;11895;48.738;9.320;2023-06-10T12:35:23;2.20;;;2.00;;
23444;SDS011;11895;48.738;9.320;2023-06-10T12:37:54;3.13;;;2.20;;
23444;SDS011;11895;48.738;9.320;2023-06-10T12:40:28;5.03;;;1.90;;
23444;SDS011;11895;48.738;9.320;2023-06-10T12:42:58;2.47;;;2.13;;
23444;SDS011;11895;48.738;9.320;2023-06-10T12:48:18;5.25;;;1.90;;
23444;SDS011;11895;48.738;9.320;2023-06-10T12:50:54;7.63;;;2.40;;
23444;SDS011;11895;48.738;9.320;2023-06-10T12:53:24;8.43;;;2.00;;
23444;SDS011;11895;48.738;9.320;2023-06-10T12:55:55;3.47;;;2.00;;
23444;SDS011;11895;48.738;9.320;2023-06-10T12:58:24;2.55;;;1.75;;
23444;SDS011;11895;48.738;9.320;2023-06-10T13:00:51;2.90;;;1.80;;
23444;SDS011;11895;48.738;9.320;2023-06-10T13:03:22;2.65;;;2.08;;
23444;SDS011;11895;48.738;9.320;2023-06-10T13:05:49;3.38;;;2.00;;
23444;SDS011;11895;48.738;9.320;2023-06-10T13:08:16;3.42;;;2.10;;
23444;SDS011;11895;48.738;9.320;2023-06-10T13:10:44;2.23;;;2.03;;
23444;SDS011;11895;48.738;9.320;2023-06-10T13:13:11;3.83;;;2.20;;
23444;SDS011;11895;48.738;9.320;2023-06-10T13:15:40;2.13;;;1.92;;
23444;SDS011;11895;48.738;9.320;2023-06-10T13:18:09;1.88;;;1.67;;
23444;SDS011;11895;48.738;9.320;2023-06-10T13:20:38;7.70;;;2.30;;
23444;SDS011;11895;48.738;9.320;2023-06-10T13:23:06;2.13;;;1.65;;
23444;SDS011;11895;48.738;9.320;2023-06-10T13:25:33;3.03;;;2.28;;
23444;SDS011;11895;48.738;9.320;2023-06-10T13:28:00;2.75;;;1.80;;
23444;SDS011;11895;48.738;9.320;2023-06-10T13:30:29;2.20;;;1.80;;
23444;SDS011;11895;48.738;9.320;2023-06-10T13:32:56;9.35;;;2.20;;
23444;SDS011;11895;48.738;9.320;2023-06-10T13:35:23;3.57;;;2.07;;
23444;SDS011;11895;48.738;9.320;2023-06-10T13:37:50;2.28;;;2.03;;
23444;SDS011;11895;48.738;9.320;2023-06-10T13:40:18;2.78;;;2.10;;
23444;SDS011;11895;48.738;9.320;2023-06-10T13:45:17;1.95;;;1.75;;
23444;SDS011;11895;48.738;9.320;2023-06-10T13:47:44;8.70;;;2.25;;
23444;SDS011;11895;48.738;9.320;2023-06-10T13:50:12;2.03;;;1.80;;
23444;SDS011;11895;48.738;9.320;2023-06-10T13:52:39;2.47;;;2.13;;
23444;SDS011;11895;48.738;9.320;2023-06-10T13:55:07;5.13;;;2.23;;
23444;SDS011;11895;48.738;9.320;2023-06-10T13:57:36;2.70;;;2.00;;
23444;SDS011;11895;48.738;9.320;2023-06-10T14:00:03;2.53;;;2.00;;
23444;SDS011;11895;48.738;9.320;2023-06-10T14:02:32;1.98;;;1.77;;
23444;SDS011;11895;48.738;9.320;2023-06-10T14:04:59;3.77;;;2.20;;
23444;SDS011;11895;48.738;9.320;2023-06-10T14:07:26;2.53;;;2.05;;
23444;SDS011;11895;48.738;9.320;2023-06-10T14:09:54;2.53;;;2.00;;
23444;SDS011;11895;48.738;9.320;2023-06-10T14:12:22;2.20;;;2.00;;
23444;SDS011;11895;48.738;9.320;2023-06-10T14:14:49;2.55;;;2.17;;
23444;SDS011;11895;48.738;9.320;2023-06-10T14:17:17;2.35;;;2.15;;
23444;SDS011;11895;48.738;9.320;2023-06-10T14:19:44;3.72;;;2.10;;
23444;SDS011;11895;48.738;9.320;2023-06-10T14:22:11;2.73;;;2.20;;
23444;SDS011;11895;48.738;9.320;2023-06-10T14:24:38;2.50;;;2.03;;
23444;SDS011;11895;48.738;9.320;2023-06-10T14:27:06;2.67;;;2.30;;
23444;SDS011;11895;48.738;9.320;2023-06-10T14:29:33;2.87;;;2.00;;
23444;SDS011;11895;48.738;9.320;2023-06-10T14:32:01;3.78;;;2.78;;
23444;SDS011;11895;48.738;9.320;2023-06-10T14:34:33;3.25;;;2.40;;
23444;SDS011;11895;48.738;9.320;2023-06-10T14:37:01;3.13;;;2.50;;
23444;SDS011;11895;48.738;9.320;2023-06-10T14:39:30;3.10;;;2.42;;
23444;SDS011;11895;48.738;9.320;2023-06-10T14:41:57;2.95;;;2.45;;
23444;SDS011;11895;48.738;9.320;2023-06-10T14:44:25;3.45;;;2.17;;
23444;SDS011;11895;48.738;9.320;2023-06-10T14:46:52;4.65;;;3.10;;
23444;SDS011;11895;48.738;9.320;2023-06-10T14:49:19;2.67;;;2.40;;
23444;SDS011;11895;48.738;9.320;2023-06-10T14:51:47;3.45;;;2.22;;
23444;SDS011;11895;48.738;9.320;2023-06-10T14:54:16;3.80;;;2.00;;
23444;SDS011;11895;48.738;9.320;2023-06-10T14:56:43;5.25;;;2.35;;
23444;SDS011;11895;48.738;9.320;2023-06-10T14:59:10;3.60;;;2.17;;
23444;SDS011;11895;48.738;9.320;2023-06-10T15:01:38;2.85;;;2.10;;
23444;SDS011;11895;48.738;9.320;2023-06-10T15:04:05;7.82;;;2.88;;
23444;SDS011;11895;48.738;9.320;2023-06-10T15:06:32;3.13;;;2.10;;
23444;SDS011;11895;48.738;9.320;2023-06-10T15:08:59;3.50;;;2.22;;
23444;SDS011;11895;48.738;9.320;2023-06-10T15:11:27;4.32;;;2.80;;
23444;SDS011;11895;48.738;9.320;2023-06-10T15:13:54;11.43;;;3.40;;
23444;SDS011;11895;48.738;9.320;2023-06-10T15:16:21;3.83;;;2.43;;
23444;SDS011;11895;48.738;9.320;2023-06-10T15:18:48;3.03;;;2.13;;
23444;SDS011;11895;48.738;9.320;2023-06-10T15:21:16;2.67;;;2.13;;
23444;SDS011;11895;48.738;9.320;2023-06-10T15:23:43;4.63;;;2.50;;
23444;SDS011;11895;48.738;9.320;2023-06-10T15:26:11;3.80;;;3.30;;
23444;SDS011;11895;48.738;9.320;2023-06-10T15:28:38;5.93;;;2.93;;
23444;SDS011;11895;48.738;9.320;2023-06-10T15:31:05;4.70;;;2.80;;
23444;SDS011;11895;48.738;9.320;2023-06-10T15:33:34;4.30;;;3.33;;
23444;SDS011;11895;48.738;9.320;2023-06-10T15:36:02;7.65;;;3.58;;
23444;SDS011;11895;48.738;9.320;2023-06-10T15:38:31;4.93;;;2.40;;
23444;SDS011;11895;48.738;9.320;2023-06-10T15:40:58;4.40;;;2.65;;
23444;SDS011;11895;48.738;9.320;2023-06-10T15:43:25;5.25;;;2.28;;
23444;SDS011;11895;48.738;9.320;2023-06-10T15:45:52;2.35;;;2.05;;
23444;SDS011;11895;48.738;9.320;2023-06-10T15:48:20;5.13;;;2.38;;
23444;SDS011;11895;48.738;9.320;2023-06-10T15:50:47;4.47;;;1.83;;
23444;SDS011;11895;48.738;9.320;2023-06-10T15:53:14;1.90;;;1.50;;
23444;SDS011;11895;48.738;9.320;2023-06-10T15:55:41;2.78;;;1.65;;
23444;SDS011;11895;48.738;9.320;2023-06-10T15:58:12;2.22;;;1.98;;
23444;SDS011;11895;48.738;9.320;2023-06-10T16:00:40;2.97;;;1.60;;
23444;SDS011;11895;48.738;9.320;2023-06-10T16:03:07;2.40;;;1.75;;
23444;SDS011;11895;48.738;9.320;2023-06-10T16:05:35;3.58;;;2.33;;
23444;SDS011;11895;48.738;9.320;2023-06-10T16:08:02;2.23;;;1.80;;
23444;SDS011;11895;48.738;9.320;2023-06-10T16:10:30;2.33;;;1.90;;
23444;SDS011;11895;48.738;9.320;2023-06-10T16:12:57;3.67;;;1.80;;
23444;SDS011;11895;48.738;9.320;2023-06-10T16:15:24;3.83;;;1.97;;
23444;SDS011;11895;48.738;9.320;2023-06-10T16:17:51;4.50;;;2.23;;
23444;SDS011;11895;48.738;9.320;2023-06-10T16:20:19;6.03;;;2.33;;
23444;SDS011;11895;48.738;9.320;2023-06-10T16:22:46;2.83;;;2.00;;
23444;SDS011;11895;48.738;9.320;2023-06-10T16:25:13;4.10;;;1.95;;
23444;SDS011;11895;48.738;9.320;2023-06-10T16:27:41;2.55;;;1.80;;
23444;SDS011;11895;48.738;9.320;2023-06-10T16:30:08;4.60;;;1.90;;
23444;SDS011;11895;48.738;9.320;2023-06-10T16:32:36;4.13;;;2.25;;
23444;SDS011;11895;48.738;9.320;2023-06-10T16:35:04;7.55;;;2.00;;
23444;SDS011;11895;48.738;9.320;2023-06-10T16:37:35;2.58;;;2.10;;
23444;SDS011;11895;48.738;9.320;2023-06-10T16:40:03;7.82;;;2.40;;
23444;SDS011;11895;48.738;9.320;2023-06-10T16:42:32;2.63;;;2.40;;
23444;SDS011;11895;48.738;9.320;2023-06-10T16:47:29;2.53;;;2.20;;
23444;SDS011;11895;48.738;9.320;2023-06-10T16:49:59;3.58;;;2.60;;
23444;SDS011;11895;48.738;9.320;2023-06-10T16:52:29;5.75;;;2.88;;
23444;SDS011;11895;48.738;9.320;2023-06-10T16:54:57;4.20;;;2.42;;
23444;SDS011;11895;48.738;9.320;2023-06-10T16:57:24;4.25;;;2.60;;
23444;SDS011;11895;48.738;9.320;2023-06-10T16:59:51;3.10;;;2.40;;
23444;SDS011;11895;48.738;9.320;2023-06-10T17:02:19;5.55;;;2.72;;
23444;SDS011;11895;48.738;9.320;2023-06-10T17:04:46;5.55;;;3.22;;
23444;SDS011;11895;48.738;9.320;2023-06-10T17:07:13;6.20;;;3.67;;
23444;SDS011;11895;48.738;9.320;2023-06-10T17:09:43;4.05;;;3.10;;
23444;SDS011;11895;48.738;9.320;2023-06-10T17:12:10;6.40;;;3.70;;